Time;durP1;ratioP1;P1;durP2;ratioP2;P2;SDS_P1;SDS_P2;PMS_P1;PMS_P2;Temp;Humidity;BMP_temperature;BMP_pressure;BME280_temperature;BME280_humidity;BME280_pressure;Samples;Min_cycle;Max_cycle;Signal;HPM_P1;HPM_P2
2021/04/02 00:00:52;;;;;;;19.75;12.82;;;;;;;6.61;55.09;100061.88;5050931;28;20025;-23
2021/04/02 00:03:18;;;;;;;19.52;11.80;;;;;;;6.88;55.10;100064.72;5050629;28;20040;-23
2021/04/02 00:05:44;;;;;;;18.35;12.00;;;;;;;5.92;56.08;100036.00;5050865;28;20047;-23
2021/04/02 00:08:10;;;;;;;16.75;12.00;;;;;;;6.40;55.91;100060.09;5050728;28;20064;-23
2021/04/02 00:10:45;;;;;;;20.80;11.57;;;;;;;5.88;57.58;100056.75;5050455;28;20021;-21
2021/04/02 00:13:12;;;;;;;18.85;11.57;;;;;;;6.36;55.78;100056.22;5050595;28;20086;-23
2021/04/02 00:15:38;;;;;;;20.20;10.82;;;;;;;6.68;54.87;100040.72;5050368;28;20033;-23
2021/04/02 00:18:05;;;;;;;30.73;15.15;;;;;;;6.54;55.78;100039.81;5050374;28;20021;-23
2021/04/02 00:20:30;;;;;;;37.90;18.02;;;;;;;6.62;55.39;100047.66;5032439;28;20025;-23
2021/04/02 00:22:56;;;;;;;54.22;24.83;;;;;;;5.97;57.14;100034.47;5050198;28;20029;-23
2021/04/02 00:25:22;;;;;;;45.88;19.77;;;;;;;6.61;56.18;100040.69;5050111;28;20086;-23
2021/04/02 00:27:47;;;;;;;32.38;17.20;;;;;;;7.08;54.13;100035.66;5050142;28;20060;-23
2021/04/02 00:30:23;;;;;;;28.63;16.95;;;;;;;6.98;54.11;100014.81;5049810;28;20111;-23
2021/04/02 00:32:49;;;;;;;24.92;14.75;;;;;;;6.60;53.47;99970.19;5050462;28;20029;-23
2021/04/02 00:35:14;;;;;;;23.77;13.90;;;;;;;6.94;54.43;100032.13;5050087;28;20024;-23
2021/04/02 00:37:40;;;;;;;24.08;15.93;;;;;;;7.04;53.01;100020.13;5015654;28;20482;-23
2021/04/02 00:40:20;;;;;;;29.90;16.00;;;;;;;6.99;53.45;100037.69;5049643;28;20169;-19
2021/04/02 00:42:46;;;;;;;27.60;15.95;;;;;;;6.53;54.15;100032.91;5050213;28;20041;-23
2021/04/02 00:45:12;;;;;;;25.27;16.92;;;;;;;6.55;55.06;100021.09;5049918;28;20112;-23
2021/04/02 00:47:38;;;;;;;23.90;15.32;;;;;;;6.26;55.23;100031.88;5049741;28;20032;-23
2021/04/02 00:50:12;;;;;;;25.05;14.82;;;;;;;6.20;55.04;100028.16;5049564;28;20060;-23
2021/04/02 00:52:38;;;;;;;29.70;17.95;;;;;;;5.34;57.53;100022.78;5049807;28;20493;-23
2021/04/02 00:55:04;;;;;;;35.42;18.67;;;;;;;5.67;56.70;100009.13;5049621;28;20035;-23
2021/04/02 00:57:32;;;;;;;48.30;26.17;;;;;;;4.96;57.77;99993.84;5049327;28;20021;-23
2021/04/02 00:59:57;;;;;;;33.90;19.27;;;;;;;5.42;56.98;100015.56;5050052;28;20036;-22
2021/04/02 01:02:23;;;;;;;28.27;16.60;;;;;;;5.82;55.08;99983.41;5049555;28;20084;-21
2021/04/02 01:04:49;;;;;;;26.17;16.15;;;;;;;6.24;54.27;100005.59;5049975;28;20132;-23
2021/04/02 01:07:14;;;;;;;23.13;12.50;;;;;;;5.35;56.61;100003.25;5049446;28;20037;-22
2021/04/02 01:09:40;;;;;;;23.35;13.85;;;;;;;5.69;55.19;100005.25;5049423;28;20071;-23
2021/04/02 01:12:06;;;;;;;24.00;14.27;;;;;;;5.71;55.85;100002.44;5049180;28;20115;-23
2021/04/02 01:14:32;;;;;;;20.67;12.48;;;;;;;5.26;57.39;100001.75;5031634;28;20520;-23
2021/04/02 01:16:57;;;;;;;21.23;12.52;;;;;;;5.64;57.22;99995.25;5049294;28;20071;-22
2021/04/02 01:19:36;;;;;;;29.98;12.77;;;;;;;5.95;55.27;99994.16;5049370;28;20548;-22
2021/04/02 01:22:04;;;;;;;19.83;11.52;;;;;;;6.02;55.72;99997.66;5031669;28;20159;-24
2021/04/02 01:24:42;;;;;;;27.45;13.77;;;;;;;5.90;55.73;99985.09;5031088;28;20038;-23
2021/04/02 01:27:11;;;;;;;19.70;11.43;;;;;;;5.89;56.20;99989.59;5049464;28;20558;-23
2021/04/02 01:29:53;;;;;;;17.25;11.00;;;;;;;5.63;57.66;99993.59;5031211;28;20060;-23
2021/04/02 01:32:27;;;;;;;14.95;10.48;;;;;;;5.87;55.61;99983.66;5049268;28;20029;-23
2021/04/02 01:34:58;;;;;;;16.50;10.32;;;;;;;4.96;58.71;99988.56;5048847;28;20040;-23
2021/04/02 01:37:37;;;;;;;17.92;11.27;;;;;;;5.06;58.67;99972.44;5049100;28;20058;-22
2021/04/02 01:40:03;;;;;;;;;;;;;;;5.28;59.10;99976.75;5031565;28;20032;-22
2021/04/02 01:42:29;;;;;;;16.23;10.75;;;;;;;4.61;59.41;99990.94;5049217;28;19916;-22
2021/04/02 01:44:55;;;;;;;16.80;11.27;;;;;;;5.09;59.13;99987.91;5014584;28;20033;-23
2021/04/02 01:47:20;;;;;;;21.90;11.30;;;;;;;5.39;57.51;99975.44;5014412;28;20037;-23
2021/04/02 01:49:46;;;;;;;19.98;11.52;;;;;;;5.67;56.91;99969.44;5030777;28;20506;-24
2021/04/02 01:52:12;;;;;;;19.33;11.80;;;;;;;5.52;56.74;99970.31;5014117;28;20090;-23
2021/04/02 01:54:37;;;;;;;21.08;12.27;;;;;;;5.56;56.23;99963.63;5014272;28;20083;-23
2021/04/02 01:57:04;;;;;;;20.13;12.45;;;;;;;5.08;58.21;99944.00;5030858;28;20124;-23
2021/04/02 01:59:29;;;;;;;16.17;10.32;;;;;;;5.14;57.05;99948.53;5030872;28;20053;-23
2021/04/02 02:01:55;;;;;;;17.63;11.57;;;;;;;5.46;56.55;99952.53;5030884;28;20570;-23
2021/04/02 02:04:21;;;;;;;20.27;12.35;;;;;;;5.61;56.69;99961.22;5014043;28;20378;-23
2021/04/02 02:06:49;;;;;;;23.15;11.82;;;;;;;5.56;56.57;99946.94;5014289;28;20033;-22
2021/04/02 02:09:17;;;;;;;20.30;12.32;;;;;;;5.06;57.64;99938.88;5030066;28;20055;-22
2021/04/02 02:11:43;;;;;;;19.45;12.30;;;;;;;5.47;57.67;99946.22;5048143;28;20086;-23
2021/04/02 02:14:13;;;;;;;19.17;11.32;;;;;;;4.10;60.00;99919.53;5013931;28;20033;-23
2021/04/02 02:16:44;;;;;;;21.63;12.52;;;;;;;4.80;58.82;99953.44;5014832;28;20041;-23
2021/04/02 02:19:18;;;;;;;17.98;11.82;;;;;;;4.64;59.32;99943.06;5014305;28;20497;-23
2021/04/02 02:21:44;;;;;;;19.83;11.10;;;;;;;3.93;61.17;99930.25;4997796;28;20032;-23
2021/04/02 02:24:09;;;;;;;22.40;12.40;;;;;;;4.75;58.85;99955.78;5047962;28;20032;-23
2021/04/02 02:26:36;;;;;;;17.83;11.80;;;;;;;4.40;60.08;99947.59;5030385;28;20060;-21
2021/04/02 02:29:02;;;;;;;19.80;11.05;;;;;;;4.13;60.49;99946.41;5030324;28;20508;-22
2021/04/02 02:31:27;;;;;;;16.42;11.35;;;;;;;3.64;62.13;99946.81;5013576;28;20036;-23
2021/04/02 02:33:53;;;;;;;17.05;10.43;;;;;;;3.14;62.55;99924.41;5030139;28;20048;-23
2021/04/02 02:36:18;;;;;;;19.52;11.55;;;;;;;3.86;60.50;99945.13;5047494;28;20036;-23
2021/04/02 02:38:44;;;;;;;18.40;11.10;;;;;;;3.77;61.27;99938.31;5048170;28;20040;-23
2021/04/02 02:41:09;;;;;;;17.92;11.23;;;;;;;3.71;61.52;99941.66;5013869;28;20416;-23
2021/04/02 02:43:35;;;;;;;20.52;12.82;;;;;;;4.40;60.39;99947.59;5029682;28;20459;-23
2021/04/02 02:46:01;;;;;;;22.92;13.18;;;;;;;4.73;58.73;99936.66;5047593;28;20033;-23
2021/04/02 02:48:26;;;;;;;21.00;13.13;;;;;;;4.83;57.88;99931.91;5029287;28;20045;-22
2021/04/02 02:50:54;;;;;;;29.90;15.73;;;;;;;4.99;57.80;99932.72;5047581;28;20061;-23
2021/04/02 02:53:20;;;;;;;23.67;14.57;;;;;;;4.86;58.10;99914.84;5013721;28;20093;-22
2021/04/02 02:55:46;;;;;;;25.63;12.82;;;;;;;4.94;57.38;99935.06;5013847;28;20068;-23
2021/04/02 02:58:13;;;;;;;25.90;13.95;;;;;;;4.69;58.65;99934.56;5029373;28;20024;-23
2021/04/02 03:00:41;;;;;;;24.00;13.27;;;;;;;4.52;58.70;99918.91;5013445;28;20044;-23
2021/04/02 03:03:13;;;;;;;25.20;13.65;;;;;;;4.69;58.90;99924.81;5013743;28;20203;-23
2021/04/02 03:05:38;;;;;;;22.75;12.80;;;;;;;4.90;57.69;99905.56;5014234;28;20112;-23
2021/04/02 03:08:04;;;;;;;20.02;12.93;;;;;;;5.27;56.67;99921.41;5013233;28;20025;-23
2021/04/02 03:10:31;;;;;;;46.53;19.60;;;;;;;4.35;58.68;99928.84;5029262;28;20765;-22
2021/04/02 03:12:57;;;;;;;20.85;11.57;;;;;;;3.26;61.51;99916.94;5029631;28;20029;-22
2021/04/02 03:15:22;;;;;;;19.42;12.00;;;;;;;3.22;62.87;99917.25;5029459;28;20488;-22
2021/04/02 03:17:53;;;;;;;21.73;12.80;;;;;;;3.34;63.95;99915.06;5029536;28;20068;-23
2021/04/02 03:20:19;;;;;;;24.85;12.55;;;;;;;2.94;64.40;99913.47;5028181;28;20032;-23
2021/04/02 03:22:45;;;;;;;18.83;11.98;;;;;;;3.11;64.79;99917.69;5029503;28;20021;-22
2021/04/02 03:25:12;;;;;;;22.88;13.75;;;;;;;4.05;61.95;99919.28;5013135;28;20108;-23
2021/04/02 03:27:39;;;;;;;28.83;19.97;;;;;;;3.70;62.57;99924.16;5013176;28;20059;-22
2021/04/02 03:30:08;;;;;;;22.88;14.52;;;;;;;3.69;62.73;99885.63;5029698;28;20267;-22
2021/04/02 03:32:34;;;;;;;27.02;14.90;;;;;;;3.53;63.39;99923.47;5046903;28;20029;-23
2021/04/02 03:34:59;;;;;;;21.63;13.07;;;;;;;2.90;65.10;99904.28;5012764;28;20040;-22
2021/04/02 03:37:25;;;;;;;17.23;11.63;;;;;;;3.44;63.37;99909.56;5013096;28;20063;-23
2021/04/02 03:39:51;;;;;;;38.00;14.48;;;;;;;2.70;65.72;99896.00;5028837;28;20033;-22
2021/04/02 03:42:16;;;;;;;28.23;14.00;;;;;;;3.07;64.67;99916.38;5027719;28;20053;-23
2021/04/02 03:44:42;;;;;;;21.48;12.98;;;;;;;2.27;65.82;99904.22;5046833;28;20029;-23
2021/04/02 03:47:15;;;;;;;23.10;14.13;;;;;;;3.12;63.95;99905.31;5012457;28;20606;-23
2021/04/02 03:49:41;;;;;;;24.55;14.18;;;;;;;2.89;64.51;99921.09;4993639;28;20053;-23
2021/04/02 03:52:09;;;;;;;20.98;13.57;;;;;;;3.31;63.48;99896.97;5009513;28;20018;-21
2021/04/02 03:54:35;;;;;;;29.63;18.03;;;;;;;3.47;62.65;99909.19;5025867;28;20034;-22
2021/04/02 03:57:01;;;;;;;31.27;19.95;;;;;;;3.70;63.00;99897.78;5025926;28;20358;-23
2021/04/02 03:59:27;;;;;;;32.75;21.17;;;;;;;4.01;61.36;99906.41;5025622;28;20503;-23
2021/04/02 04:01:53;;;;;;;34.20;22.15;;;;;;;4.47;59.78;99925.75;5025630;28;20041;-23
2021/04/02 04:04:21;;;;;;;51.05;29.90;;;;;;;3.88;61.86;99906.19;5008987;28;20108;-23
2021/04/02 04:06:47;;;;;;;;;;;;;;;3.90;62.50;99913.94;5010047;28;20056;-23
2021/04/02 04:09:14;;;;;;;43.03;26.77;;;;;;;3.59;63.23;99913.03;5025440;28;20388;-23
2021/04/02 04:11:40;;;;;;;49.97;27.77;;;;;;;3.97;62.11;99914.88;5026714;28;20061;-23
2021/04/02 04:14:05;;;;;;;33.65;20.63;;;;;;;4.49;59.89;99911.34;5009023;28;20065;-23
2021/04/02 04:16:31;;;;;;;39.95;23.27;;;;;;;4.49;59.73;99913.19;5025184;28;20037;-23
2021/04/02 04:19:00;;;;;;;58.22;31.02;;;;;;;4.44;59.39;99895.25;5025545;28;20044;-22
2021/04/02 04:21:31;;;;;;;68.80;34.70;;;;;;;4.57;57.99;99884.03;5026549;28;20390;-23
2021/04/02 04:23:58;;;;;;;78.88;36.50;;;;;;;4.65;58.51;99894.50;5027010;28;20525;-23
2021/04/02 04:26:26;;;;;;;92.28;39.33;;;;;;;5.11;57.02;99906.59;5008869;28;20452;-23
2021/04/02 04:28:51;;;;;;;76.22;34.30;;;;;;;5.31;55.95;99902.34;5009339;28;20021;-23
2021/04/02 04:31:20;;;;;;;60.35;32.67;;;;;;;4.32;59.43;99897.53;5025261;28;20060;-23
2021/04/02 04:33:46;;;;;;;114.57;52.78;;;;;;;3.78;61.23;99901.19;5030437;28;20026;-22
2021/04/02 04:36:12;;;;;;;34.95;20.20;;;;;;;3.27;62.98;99892.19;5012555;28;20033;-23
2021/04/02 04:38:38;;;;;;;36.13;19.23;;;;;;;3.40;62.86;99916.16;5028898;28;20033;-23
2021/04/02 04:41:03;;;;;;;51.53;21.55;;;;;;;3.29;61.96;99898.13;5029072;28;20113;-23
2021/04/02 04:43:29;;;;;;;42.25;21.77;;;;;;;3.36;62.11;99906.97;5028772;28;20088;-23
2021/04/02 04:45:54;;;;;;;35.95;17.90;;;;;;;3.83;60.01;99916.47;5012280;28;20041;-23
2021/04/02 04:48:20;;;;;;;26.88;15.15;;;;;;;3.73;60.08;99913.28;5030103;28;20084;-23
2021/04/02 04:50:45;;;;;;;27.40;14.40;;;;;;;3.38;60.78;99899.72;5032066;28;20863;-23
2021/04/02 04:53:18;;;;;;;19.00;12.27;;;;;;;2.87;63.32;99902.00;5049611;28;20033;-23
2021/04/02 04:55:44;;;;;;;24.83;15.55;;;;;;;2.80;63.69;99910.59;5049755;28;20025;-22
2021/04/02 04:58:14;;;;;;;35.42;17.58;;;;;;;2.77;64.37;99887.22;5049455;28;20060;-23
2021/04/02 05:00:42;;;;;;;33.20;18.40;;;;;;;2.88;63.82;99899.22;5050083;28;20040;-23
2021/04/02 05:03:08;;;;;;;43.22;25.40;;;;;;;3.26;63.08;99895.84;5032127;28;20515;-23
2021/04/02 05:05:36;;;;;;;57.10;30.98;;;;;;;3.57;63.22;99915.03;5031890;28;20078;-23
2021/04/02 05:08:03;;;;;;;57.70;29.77;;;;;;;3.65;63.23;99910.72;5031678;28;20033;-23
2021/04/02 05:10:29;;;;;;;55.40;27.27;;;;;;;3.83;63.32;99921.75;5031339;28;20774;-23
2021/04/02 05:12:55;;;;;;;63.85;31.75;;;;;;;4.16;62.58;99918.81;5031532;28;20024;-23
2021/04/02 05:15:20;;;;;;;58.17;31.08;;;;;;;4.34;62.71;99927.19;5015181;28;20033;-23
2021/04/02 05:17:46;;;;;;;61.95;31.02;;;;;;;4.49;62.18;99907.91;5049175;28;20408;-23
2021/04/02 05:20:12;;;;;;;62.03;38.42;;;;;;;4.87;60.83;99900.66;5031134;28;20033;-23
2021/04/02 05:22:38;;;;;;;70.28;46.90;;;;;;;5.35;59.57;99923.94;5031548;28;20025;-21
2021/04/02 05:25:06;;;;;;;59.30;37.92;;;;;;;5.04;61.79;99911.81;5049293;28;20884;-23
2021/04/02 05:27:32;;;;;;;42.72;27.38;;;;;;;4.94;61.17;99906.00;5049190;28;20033;-21
2021/04/02 05:29:58;;;;;;;73.43;35.70;;;;;;;5.50;59.74;99900.09;5049720;28;20122;-23
2021/04/02 05:32:23;;;;;;;83.32;49.25;;;;;;;5.39;60.87;99919.91;5048676;28;20032;-22
2021/04/02 05:34:49;;;;;;;56.03;34.30;;;;;;;5.29;61.26;99914.09;5031307;28;20021;-23
2021/04/02 05:37:14;;;;;;;123.40;70.18;;;;;;;5.07;61.98;99898.25;5049105;28;20036;-23
2021/04/02 05:39:40;;;;;;;116.97;52.72;;;;;;;5.46;61.33;99902.28;5048743;28;20036;-23
2021/04/02 05:42:06;;;;;;;128.73;62.53;;;;;;;5.43;62.03;99911.44;5048775;28;20385;-23
2021/04/02 05:44:33;;;;;;;110.43;54.50;;;;;;;5.73;61.46;99910.47;5047779;28;20029;-23
2021/04/02 05:47:06;;;;;;;281.13;111.40;;;;;;;5.64;62.30;99899.19;5048581;28;20062;-22
2021/04/02 05:49:32;;;;;;;63.33;33.45;;;;;;;5.64;63.28;99897.38;5048568;28;20099;-23
2021/04/02 05:51:58;;;;;;;421.17;172.38;;;;;;;5.63;62.00;99863.16;5048553;28;20790;-22
2021/04/02 05:54:36;;;;;;;44.60;29.92;;;;;;;6.14;63.06;99907.13;5048197;28;20094;-23
2021/04/02 05:57:01;;;;;;;32.97;21.50;;;;;;;6.25;62.65;99898.63;5048807;28;20095;-23
2021/04/02 05:59:27;;;;;;;34.08;23.30;;;;;;;5.76;64.43;99873.00;5048445;28;20037;-23
2021/04/02 06:01:53;;;;;;;41.78;24.48;;;;;;;6.41;62.11;99900.97;5048443;28;20056;-23
2021/04/02 06:04:18;;;;;;;31.88;19.92;;;;;;;6.38;62.66;99901.38;5030426;28;20116;-23
2021/04/02 06:06:45;;;;;;;34.45;21.48;;;;;;;6.73;60.51;99890.72;5048369;28;20025;-22
2021/04/02 06:09:11;;;;;;;46.40;28.58;;;;;;;7.07;60.71;99896.97;5048592;28;20029;-21
2021/04/02 06:11:36;;;;;;;34.78;23.10;;;;;;;6.94;60.91;99907.53;5030702;28;20115;-23
2021/04/02 06:14:03;;;;;;;34.22;23.88;;;;;;;7.28;60.89;99882.72;5048029;28;20119;-23
2021/04/02 06:16:28;;;;;;;38.17;25.25;;;;;;;7.64;58.61;99897.44;5048138;28;20025;-23
2021/04/02 06:18:57;;;;;;;30.13;20.45;;;;;;;7.95;59.25;99894.19;5030399;28;20067;-23
2021/04/02 06:21:26;;;;;;;34.95;22.67;;;;;;;8.20;58.24;99898.84;5013674;28;20056;-23
2021/04/02 06:23:51;;;;;;;29.30;20.20;;;;;;;7.94;59.75;99897.84;5048300;28;20070;-22
2021/04/02 06:26:17;;;;;;;27.55;18.05;;;;;;;7.58;59.96;99895.59;5047760;28;20115;-22
2021/04/02 06:28:43;;;;;;;36.97;26.50;;;;;;;7.89;59.27;99900.31;5048050;28;20477;-22
2021/04/02 06:31:08;;;;;;;55.40;33.17;;;;;;;8.07;58.70;99901.50;5047880;28;20057;-23
2021/04/02 06:33:46;;;;;;;43.63;35.92;;;;;;;8.48;57.35;99897.78;5047726;28;20060;-23
2021/04/02 06:36:19;;;;;;;32.42;19.90;;;;;;;8.25;57.34;99894.56;5047648;28;20040;-24
2021/04/02 06:38:47;;;;;;;33.28;23.23;;;;;;;8.49;57.80;99868.34;5047838;28;20040;-23
2021/04/02 06:41:13;;;;;;;34.63;22.15;;;;;;;9.15;56.68;99872.53;5047664;28;20029;-22
2021/04/02 06:43:44;;;;;;;33.47;22.23;;;;;;;9.25;55.32;99880.88;5047719;28;20059;-22
2021/04/02 06:46:22;;;;;;;28.55;19.95;;;;;;;9.56;53.45;99887.22;5047420;28;20488;-23
2021/04/02 06:48:49;;;;;;;31.45;21.35;;;;;;;9.75;54.00;99871.28;5030196;28;20491;-23
2021/04/02 06:51:16;;;;;;;30.08;18.63;;;;;;;10.00;53.89;99885.38;5047537;28;20056;-23
2021/04/02 06:53:46;;;;;;;24.25;16.50;;;;;;;9.75;54.07;99873.94;5047222;28;20037;-23
2021/04/02 06:56:12;;;;;;;25.35;17.58;;;;;;;9.83;53.76;99879.81;5030149;28;20602;-23
2021/04/02 06:58:42;;;;;;;27.92;17.42;;;;;;;10.02;53.38;99878.00;5047314;28;20032;-23
2021/04/02 07:01:08;;;;;;;23.30;14.60;;;;;;;9.87;51.55;99864.22;5047558;28;20040;-22
2021/04/02 07:03:34;;;;;;;25.65;15.70;;;;;;;9.73;51.64;99860.03;5029853;28;20029;-22
2021/04/02 07:06:01;;;;;;;24.23;15.93;;;;;;;10.25;50.77;99876.53;5029659;28;20029;-23
2021/04/02 07:08:27;;;;;;;24.17;15.73;;;;;;;10.34;50.99;99858.41;5047150;28;20111;-23
2021/04/02 07:10:53;;;;;;;26.65;16.35;;;;;;;10.87;50.46;99873.81;5029575;28;20550;-23
2021/04/02 07:13:19;;;;;;;23.83;14.95;;;;;;;11.10;48.88;99872.28;5013001;28;20033;-23
2021/04/02 07:15:44;;;;;;;22.38;15.07;;;;;;;10.93;50.36;99869.41;5047403;28;20401;-23
2021/04/02 07:18:12;;;;;;;20.20;13.70;;;;;;;11.12;48.71;99873.66;5029258;28;20521;-22
2021/04/02 07:20:37;;;;;;;19.95;13.98;;;;;;;11.35;48.13;99870.25;5047022;28;20028;-23
2021/04/02 07:23:03;;;;;;;19.70;14.68;;;;;;;11.35;48.18;99858.75;5047256;28;20109;-22
2021/04/02 07:25:29;;;;;;;19.52;14.70;;;;;;;11.24;48.15;99858.50;5046684;28;20028;-22
2021/04/02 07:27:56;;;;;;;21.15;13.80;;;;;;;11.23;47.02;99846.19;5047151;28;20140;-23
2021/04/02 07:30:22;;;;;;;21.50;15.18;;;;;;;11.48;47.23;99865.75;5047205;28;20071;-23
2021/04/02 07:32:49;;;;;;;22.00;14.50;;;;;;;11.80;47.66;99871.59;5012869;28;20068;-23
2021/04/02 07:35:22;;;;;;;21.05;14.77;;;;;;;12.30;44.84;99878.34;5047155;28;20902;-23
2021/04/02 07:37:52;;;;;;;22.17;13.90;;;;;;;11.96;45.34;99846.88;5029183;28;20485;-23
2021/04/02 07:40:20;;;;;;;19.60;13.60;;;;;;;12.32;46.27;99863.69;5046639;28;20029;-22
2021/04/02 07:42:49;;;;;;;20.88;14.48;;;;;;;12.32;44.84;99862.88;5029558;28;20090;-23
2021/04/02 07:45:21;;;;;;;19.10;12.60;;;;;;;12.21;45.86;99875.22;5046911;28;20037;-22
2021/04/02 07:47:52;;;;;;;18.55;13.32;;;;;;;12.02;45.82;99878.00;5029396;28;20090;-22
2021/04/02 07:50:32;;;;;;;20.10;13.90;;;;;;;11.84;47.48;99856.72;5046567;28;20053;-23
2021/04/02 07:52:58;;;;;;;17.42;12.77;;;;;;;12.34;46.14;99872.31;5046999;28;20029;-23
2021/04/02 07:55:23;;;;;;;21.23;13.75;;;;;;;12.85;46.04;99864.47;5029044;28;20029;-21
2021/04/02 07:57:53;;;;;;;19.30;13.25;;;;;;;12.35;45.18;99855.19;5029310;28;20080;-22
2021/04/02 08:00:23;;;;;;;17.38;12.57;;;;;;;12.18;44.85;99856.97;5029188;28;20477;-22
2021/04/02 08:03:05;;;;;;;22.98;12.50;;;;;;;12.43;43.37;99860.19;5046771;28;20032;-22
2021/04/02 08:05:30;;;;;;;15.60;11.10;;;;;;;12.53;42.55;99845.41;5046845;28;20868;-22
2021/04/02 08:07:56;;;;;;;17.02;12.18;;;;;;;13.13;41.68;99844.91;5049388;28;20171;-22
2021/04/02 08:10:23;;;;;;;15.75;11.00;;;;;;;13.11;41.02;99793.47;5016159;28;20079;-23
2021/04/02 08:12:48;;;;;;;17.52;12.13;;;;;;;13.85;41.81;99838.03;5050537;28;20017;-22
2021/04/02 08:15:16;;;;;;;20.48;14.30;;;;;;;14.22;42.85;99832.13;5050666;28;20094;-23
2021/04/02 08:17:42;;;;;;;19.15;12.20;;;;;;;14.05;43.29;99830.28;5050501;28;20059;-23
2021/04/02 08:20:09;;;;;;;20.55;12.55;;;;;;;13.58;42.78;99827.19;5050146;28;20067;-22
2021/04/02 08:22:35;;;;;;;17.05;12.07;;;;;;;13.41;42.96;99819.16;5050286;28;20033;-21
2021/04/02 08:25:04;;;;;;;16.95;11.60;;;;;;;13.84;41.25;99821.16;5032333;28;20040;-22
2021/04/02 08:27:31;;;;;;;17.95;11.90;;;;;;;14.05;40.35;99800.00;5050241;28;20025;-22
2021/04/02 08:30:06;;;;;;;14.60;10.35;;;;;;;14.50;40.66;99809.66;5050143;28;20033;-22
2021/04/02 08:32:39;;;;;;;15.85;11.77;;;;;;;14.17;41.30;99794.50;5050065;28;20053;-22
2021/04/02 08:35:06;;;;;;;25.60;16.83;;;;;;;14.41;39.51;99803.94;5050250;28;20033;-24
2021/04/02 08:37:31;;;;;;;18.02;11.80;;;;;;;14.53;40.18;99793.06;5050181;28;20515;-22
2021/04/02 08:39:58;;;;;;;14.80;10.00;;;;;;;14.78;38.46;99805.97;5050216;28;20037;-23
2021/04/02 08:42:27;;;;;;;20.67;12.95;;;;;;;14.52;39.46;99788.75;5049712;28;20032;-23
2021/04/02 08:44:52;;;;;;;16.58;9.07;;;;;;;14.56;39.07;99799.84;5032609;28;20056;-22
2021/04/02 08:47:18;;;;;;;12.43;7.60;;;;;;;14.35;37.23;99783.47;5049696;28;20578;-22
2021/04/02 08:50:02;;;;;;;22.58;12.20;;;;;;;15.02;36.13;99781.50;5049992;28;20174;-21
2021/04/02 08:52:29;;;;;;;16.98;11.18;;;;;;;15.06;38.13;99793.38;5049545;28;20021;-22
2021/04/02 08:54:55;;;;;;;14.30;9.45;;;;;;;14.77;38.00;99782.91;5049741;28;20055;-22
2021/04/02 08:57:22;;;;;;;14.23;9.32;;;;;;;14.54;38.99;99769.72;5049874;28;20119;-22
2021/04/02 08:59:48;;;;;;;15.40;10.30;;;;;;;14.81;39.22;99775.94;5049590;28;20123;-23
2021/04/02 09:02:14;;;;;;;15.30;9.48;;;;;;;15.13;38.05;99772.47;5032212;28;20162;-22
2021/04/02 09:04:40;;;;;;;19.95;10.80;;;;;;;15.41;38.88;99776.72;5015738;28;20827;-22
2021/04/02 09:07:06;;;;;;;15.30;9.93;;;;;;;15.86;38.82;99775.41;5049620;28;20040;-22
2021/04/02 09:09:31;;;;;;;17.27;11.70;;;;;;;15.91;36.95;99771.13;5049773;28;20583;-22
2021/04/02 09:12:04;;;;;;;14.48;9.40;;;;;;;15.83;36.20;99751.75;5049439;28;20025;-22
2021/04/02 09:14:29;;;;;;;13.90;9.25;;;;;;;15.58;38.91;99773.88;5032674;28;20426;-21
2021/04/02 09:16:56;;;;;;;13.57;9.73;;;;;;;15.67;37.93;99774.19;5015085;28;20048;-23
2021/04/02 09:19:22;;;;;;;15.55;11.52;;;;;;;15.86;37.38;99770.03;5049356;28;20093;-22
2021/04/02 09:21:47;;;;;;;15.80;8.93;;;;;;;15.93;38.50;99772.47;5049501;28;20116;-22
2021/04/02 09:24:13;;;;;;;14.75;9.73;;;;;;;16.04;37.12;99765.28;5049188;28;20032;-23
2021/04/02 09:26:40;;;;;;;13.23;8.90;;;;;;;16.25;35.69;99739.28;5031208;28;20571;-23
2021/04/02 09:29:06;;;;;;;12.38;8.48;;;;;;;15.96;35.77;99753.16;5049144;28;20033;-23
2021/04/02 09:31:37;;;;;;;14.93;8.25;;;;;;;16.11;36.74;99755.09;5049107;28;20457;-23
2021/04/02 09:34:04;;;;;;;12.73;8.70;;;;;;;16.18;38.15;99727.94;5049053;28;20033;-22
2021/04/02 09:36:31;;;;;;;12.77;7.93;;;;;;;16.75;36.01;99737.75;5031086;28;20039;-23
2021/04/02 09:39:13;;;;;;;15.35;8.98;;;;;;;17.11;35.16;99732.41;5049000;28;20033;-22
2021/04/02 09:41:59;;;;;;;12.88;8.50;;;;;;;16.56;36.48;99728.56;5049134;28;20481;-22
2021/04/02 09:44:27;;;;;;;12.55;8.60;;;;;;;16.36;36.11;99719.38;5048345;28;20037;-24
2021/04/02 09:46:59;;;;;;;14.77;9.32;;;;;;;16.40;36.35;99709.69;5048802;28;20040;-22
2021/04/02 09:49:25;;;;;;;12.05;7.47;;;;;;;16.52;34.42;99732.88;5048809;28;20576;-23
2021/04/02 09:51:52;;;;;;;12.68;7.68;;;;;;;16.52;35.18;99735.56;5030907;28;20051;-23
2021/04/02 09:54:18;;;;;;;12.48;8.23;;;;;;;16.72;35.80;99729.41;5048723;28;20045;-22
2021/04/02 09:56:44;;;;;;;14.80;7.25;;;;;;;17.32;34.22;99733.19;5048602;28;20052;-23
2021/04/02 09:59:10;;;;;;;13.05;7.05;;;;;;;17.59;34.22;99727.50;5048701;28;20064;-22
2021/04/02 10:01:37;;;;;;;11.02;7.97;;;;;;;17.75;33.45;99732.84;5048631;28;20113;-22
2021/04/02 10:04:03;;;;;;;15.98;7.60;;;;;;;17.39;36.61;99727.56;5048533;28;20052;-21
2021/04/02 10:06:29;;;;;;;12.02;7.13;;;;;;;17.38;34.11;99702.47;5048348;28;20021;-22
2021/04/02 10:08:54;;;;;;;10.80;6.55;;;;;;;17.62;33.13;99726.16;5048662;28;20087;-22
2021/04/02 10:11:21;;;;;;;10.65;6.90;;;;;;;17.49;33.75;99719.44;5048179;28;20025;-22
2021/04/02 10:13:46;;;;;;;11.43;6.13;;;;;;;17.83;33.84;99708.03;5048388;28;20055;-22
2021/04/02 10:16:12;;;;;;;10.82;6.57;;;;;;;17.11;35.61;99705.47;5047989;28;20397;-22
2021/04/02 10:18:38;;;;;;;9.30;6.88;;;;;;;17.20;37.54;99701.16;5030254;28;20028;-23
2021/04/02 10:21:05;;;;;;;10.15;7.28;;;;;;;17.34;33.69;99689.81;5048264;28;20823;-22
2021/04/02 10:23:31;;;;;;;12.40;7.55;;;;;;;17.68;34.92;99703.47;5048153;28;20037;-22
2021/04/02 10:25:57;;;;;;;10.80;6.90;;;;;;;17.73;35.93;99697.25;5048027;28;20111;-23
2021/04/02 10:28:23;;;;;;;12.25;7.28;;;;;;;17.50;34.63;99694.09;5047754;28;20059;-22
2021/04/02 10:30:50;;;;;;;10.05;6.55;;;;;;;17.84;33.60;99693.47;5047623;28;20055;-22
2021/04/02 10:33:16;;;;;;;16.00;8.93;;;;;;;17.90;36.86;99678.06;5047766;28;20032;-22
2021/04/02 10:35:42;;;;;;;15.70;9.93;;;;;;;18.10;38.20;99674.47;5030192;28;20037;-21
2021/04/02 10:38:07;;;;;;;21.33;13.50;;;;;;;17.94;41.28;99671.84;5047924;28;20032;-22
2021/04/02 10:40:33;;;;;;;10.77;6.53;;;;;;;17.83;35.30;99664.88;5047912;28;20037;-23
2021/04/02 10:42:59;;;;;;;37.72;25.00;;;;;;;17.86;36.61;99665.13;5047667;28;20103;-22
2021/04/02 10:45:25;;;;;;;11.60;6.40;;;;;;;17.61;36.56;99651.72;5047520;28;20126;-22
2021/04/02 10:47:51;;;;;;;12.90;7.00;;;;;;;17.62;38.10;99645.25;5047627;28;20536;-22
2021/04/02 10:50:16;;;;;;;24.02;14.82;;;;;;;17.71;38.09;99634.69;5047100;28;20076;-21
2021/04/02 10:52:42;;;;;;;11.13;7.05;;;;;;;17.93;36.04;99637.84;5047577;28;20443;-22
2021/04/02 10:55:08;;;;;;;12.05;7.43;;;;;;;18.32;35.65;99634.38;5047616;28;20583;-22
2021/04/02 10:57:33;;;;;;;16.77;11.25;;;;;;;18.56;36.58;99628.28;5047509;28;20029;-22
2021/04/02 10:59:59;;;;;;;10.90;6.68;;;;;;;18.84;35.61;99640.22;5047361;28;20032;-22
2021/04/02 11:02:25;;;;;;;11.18;7.22;;;;;;;18.98;36.13;99634.94;5047137;28;20028;-22
2021/04/02 11:04:50;;;;;;;10.48;6.88;;;;;;;19.79;32.38;99643.25;5047449;28;20082;-23
2021/04/02 11:07:16;;;;;;;8.38;5.80;;;;;;;20.74;30.21;99638.66;5047552;28;20055;-23
2021/04/02 11:09:42;;;;;;;10.63;6.45;;;;;;;21.10;32.41;99632.56;5046955;28;20241;-22
2021/04/02 11:12:08;;;;;;;11.52;7.10;;;;;;;21.30;32.31;99606.19;5046967;28;20548;-22
2021/04/02 11:14:33;;;;;;;9.68;6.63;;;;;;;21.95;29.94;99630.38;5047475;28;20029;-24
2021/04/02 11:16:59;;;;;;;10.02;5.93;;;;;;;22.01;30.28;99629.16;5047370;28;20028;-20
2021/04/02 11:19:25;;;;;;;9.45;7.15;;;;;;;21.94;32.09;99617.88;5047467;28;20040;-22
2021/04/02 11:21:50;;;;;;;9.77;6.72;;;;;;;22.15;31.22;99601.13;5047181;28;20048;-22
2021/04/02 11:24:16;;;;;;;9.55;6.65;;;;;;;22.32;30.14;99617.59;5029024;28;20170;-22